createdAt,value
2023-02-06T00:01:24.502Z,99024.66
2023-02-06T00:03:51.006Z,99023.03
2023-02-06T00:06:17.680Z,99016.09
2023-02-06T00:08:44.351Z,99018.56
2023-02-06T00:11:13.884Z,99026.19
2023-02-06T00:13:40.448Z,99027.00
2023-02-06T00:16:19.557Z,99032.09
2023-02-06T00:18:46.355Z,99032.03
2023-02-06T00:21:13.329Z,99026.75
2023-02-06T00:23:40.234Z,99030.09
2023-02-06T00:26:07.795Z,99042.81
2023-02-06T00:28:34.878Z,99043.75
2023-02-06T00:31:01.452Z,99039.44
2023-02-06T00:33:28.013Z,99037.59
2023-02-06T00:35:54.515Z,99040.84
2023-02-06T00:38:21.061Z,99045.88
2023-02-06T00:40:47.705Z,99040.63
2023-02-06T00:43:14.576Z,99045.63
2023-02-06T00:45:41.223Z,99038.72
2023-02-06T00:48:09.194Z,99040.38
2023-02-06T00:50:36.096Z,99050.56
2023-02-06T00:53:02.645Z,99047.13
2023-02-06T00:55:29.131Z,99052.25
2023-02-06T00:57:55.617Z,99053.88
2023-02-06T01:00:22.236Z,99053.84
2023-02-06T01:02:48.747Z,99054.69
2023-02-06T01:05:15.245Z,99057.19
2023-02-06T01:07:41.763Z,99059.66
2023-02-06T01:10:09.323Z,99054.47
2023-02-06T01:12:36.876Z,99058.75
2023-02-06T01:15:08.959Z,99059.56
2023-02-06T01:17:36.116Z,99062.25
2023-02-06T01:20:02.801Z,99063.03
2023-02-06T01:22:29.291Z,99071.50
2023-02-06T01:24:55.803Z,99071.34
2023-02-06T01:27:22.343Z,99065.34
2023-02-06T01:29:48.831Z,99068.69
2023-02-06T01:32:15.369Z,99062.59
2023-02-06T01:34:42.038Z,99065.97
2023-02-06T01:37:08.492Z,99054.78
2023-02-06T01:39:35.022Z,99045.28
2023-02-06T01:42:01.585Z,99048.56
2023-02-06T01:44:28.326Z,99049.34
2023-02-06T01:46:57.072Z,99052.78
2023-02-06T01:49:26.390Z,99055.28
2023-02-06T01:51:59.378Z,99045.75
2023-02-06T01:54:26.693Z,99041.38
2023-02-06T01:56:56.644Z,99031.88
2023-02-06T01:59:24.090Z,99034.41
2023-02-06T02:01:50.680Z,99040.34
2023-02-06T02:04:20.203Z,99036.09
2023-02-06T02:06:58.527Z,99036.97
2023-02-06T02:09:25.828Z,99045.56
2023-02-06T02:11:52.326Z,99041.31
2023-02-06T02:14:18.839Z,99033.63
2023-02-06T02:17:03.138Z,99036.94
2023-02-06T02:19:48.115Z,99036.75
2023-02-06T02:22:45.579Z,99036.63
2023-02-06T02:25:24.071Z,99047.78
2023-02-06T02:28:20.951Z,99050.22
2023-02-06T02:31:19.853Z,99037.25
2023-02-06T02:34:23.808Z,99048.34
2023-02-06T02:37:34.980Z,99048.44
2023-02-06T02:40:45.751Z,99055.09
2023-02-06T02:43:49.545Z,99059.19
2023-02-06T02:46:34.328Z,99056.53
2023-02-06T02:49:12.443Z,99052.13
2023-02-06T02:51:40.659Z,99055.59
2023-02-06T02:54:08.103Z,99055.53
2023-02-06T02:56:35.374Z,99050.31
2023-02-06T02:59:10.757Z,99050.28
2023-02-06T03:01:43.810Z,99038.28
2023-02-06T03:04:18.038Z,99040.78
2023-02-06T03:06:56.550Z,99038.84
2023-02-06T03:09:40.082Z,99047.41
2023-02-06T03:12:09.472Z,99052.34
2023-02-06T03:14:59.930Z,99054.88
2023-02-06T03:17:35.035Z,99047.88
2023-02-06T03:20:05.015Z,99047.78
2023-02-06T03:22:32.810Z,99051.09
2023-02-06T03:25:01.477Z,99049.47
2023-02-06T03:27:29.985Z,99045.03
2023-02-06T03:29:59.331Z,99047.56
2023-02-06T03:32:30.432Z,99047.56
2023-02-06T03:35:08.240Z,99054.38
2023-02-06T03:37:35.752Z,99049.13
2023-02-06T03:40:03.650Z,99061.06
2023-02-06T03:42:33.709Z,99061.03
2023-02-06T03:45:17.180Z,99072.38
2023-02-06T03:47:46.444Z,99074.19
2023-02-06T03:50:14.127Z,99085.19
2023-02-06T03:52:46.508Z,99087.75
2023-02-06T03:55:19.425Z,99086.00
2023-02-06T03:57:51.435Z,99087.72
2023-02-06T04:00:18.712Z,99085.81
2023-02-06T04:02:49.700Z,99092.47
2023-02-06T04:05:18.283Z,99091.47
2023-02-06T04:07:44.979Z,99087.19
2023-02-06T04:10:11.923Z,99081.06
2023-02-06T04:12:38.830Z,99087.75
2023-02-06T04:15:05.851Z,99081.59
2023-02-06T04:17:49.732Z,99083.38
2023-02-06T04:20:19.977Z,99075.50
2023-02-06T04:22:47.056Z,99072.84
2023-02-06T04:25:13.571Z,99079.63
2023-02-06T04:27:40.080Z,99079.66
2023-02-06T04:30:07.223Z,99073.50
2023-02-06T04:32:33.716Z,99071.59
2023-02-06T04:35:00.212Z,99066.44
2023-02-06T04:37:26.712Z,99062.94
2023-02-06T04:39:53.193Z,99064.56
2023-02-06T04:42:19.711Z,99058.47
2023-02-06T04:44:46.223Z,99066.19
2023-02-06T04:47:12.872Z,99058.50
2023-02-06T04:49:39.351Z,99041.56
2023-02-06T04:52:06.053Z,99042.34
2023-02-06T04:54:32.887Z,99041.38
2023-02-06T04:56:59.508Z,99046.44
2023-02-06T04:59:26.214Z,99058.34
2023-02-06T05:01:52.713Z,99057.53
2023-02-06T05:19:03.443Z,99049.44
2023-02-06T05:21:30.028Z,99052.00
2023-02-06T05:23:56.541Z,99048.53
2023-02-06T05:26:23.071Z,99044.47
2023-02-06T05:28:49.577Z,99031.59
2023-02-06T05:31:19.877Z,99028.81
2023-02-06T05:33:50.490Z,99023.63
2023-02-06T05:36:19.873Z,99009.09
2023-02-06T05:38:47.114Z,99003.00
2023-02-06T05:41:14.281Z,99002.06
2023-02-06T05:43:40.951Z,99009.59
2023-02-06T05:46:07.590Z,99003.53
2023-02-06T05:48:34.926Z,99004.34
2023-02-06T05:51:01.929Z,99001.72
2023-02-06T05:53:28.494Z,99007.59
2023-02-06T05:55:55.520Z,99013.47
2023-02-06T05:58:22.019Z,99017.75
2023-02-06T06:00:48.564Z,99015.31
2023-02-06T06:03:15.063Z,99012.88
2023-02-06T06:05:41.623Z,99011.25
2023-02-06T06:08:08.314Z,99019.75
2023-02-06T06:10:34.890Z,99019.75
2023-02-06T06:13:01.388Z,99012.88
2023-02-06T06:15:27.965Z,99009.66
2023-02-06T06:17:54.521Z,99012.28
2023-02-06T06:20:21.047Z,99015.47
2023-02-06T06:22:47.534Z,99021.28
2023-02-06T06:25:14.069Z,99014.34
2023-02-06T06:27:40.616Z,99015.91
2023-02-06T06:30:07.838Z,99017.72
2023-02-06T06:32:34.450Z,99023.72
2023-02-06T06:35:00.955Z,99022.94
2023-02-06T06:37:27.430Z,99028.06
2023-02-06T06:39:53.892Z,99031.50
2023-02-06T06:42:20.391Z,99038.41
2023-02-06T06:49:04.325Z,99044.47
2023-02-06T06:51:30.856Z,99050.22
2023-02-06T06:53:57.484Z,99047.53
2023-02-06T06:56:24.118Z,99046.13
2023-02-06T06:58:50.880Z,99049.41
2023-02-06T07:01:18.584Z,99048.50
2023-02-06T07:03:47.081Z,99051.06
2023-02-06T07:06:13.607Z,99057.09
2023-02-06T07:08:42.045Z,99068.38
2023-02-06T07:11:10.412Z,99061.81
2023-02-06T07:13:36.951Z,99067.28
2023-02-06T07:16:03.766Z,99066.16
2023-02-06T07:18:30.474Z,99058.13
2023-02-06T07:20:56.981Z,99057.94
2023-02-06T07:23:23.511Z,99051.53
2023-02-06T07:25:50.158Z,99029.69
2023-02-06T07:28:16.699Z,99031.00
2023-02-06T07:30:43.666Z,99018.03
2023-02-06T07:33:10.249Z,99015.16
2023-02-06T07:35:36.963Z,99023.28
2023-02-06T07:38:03.733Z,99020.91
2023-02-06T07:40:43.213Z,99020.41
2023-02-06T07:43:11.268Z,99022.22
2023-02-06T07:45:38.033Z,99013.56
2023-02-06T07:48:05.288Z,99019.28
2023-02-06T07:50:31.994Z,99026.69
2023-02-06T07:52:58.565Z,99028.22
2023-02-06T07:55:24.957Z,99037.56
2023-02-06T07:57:51.332Z,99042.34
2023-02-06T08:00:17.902Z,99042.50
2023-02-06T08:02:44.342Z,99043.56
2023-02-06T08:05:10.756Z,99036.22
2023-02-06T08:07:37.172Z,99038.19
2023-02-06T08:10:03.630Z,99040.84
2023-02-06T08:12:30.143Z,99037.38
2023-02-06T08:14:56.568Z,99037.44
2023-02-06T08:17:23.113Z,99028.84
2023-02-06T08:19:49.486Z,99029.81
2023-02-06T08:22:15.837Z,99031.63
2023-02-06T08:24:42.224Z,99039.44
2023-02-06T08:27:08.595Z,99033.31
2023-02-06T08:29:42.377Z,99032.41
2023-02-06T08:32:09.455Z,99036.56
2023-02-06T08:34:36.054Z,99037.22
2023-02-06T08:37:02.409Z,99033.66
2023-02-06T08:39:28.840Z,99039.53
2023-02-06T08:41:55.196Z,99043.72
2023-02-06T08:44:21.623Z,99046.22
2023-02-06T08:46:49.697Z,99038.44
2023-02-06T08:49:19.815Z,99032.22
2023-02-06T08:51:46.425Z,99028.78
2023-02-06T08:54:14.666Z,99016.56
2023-02-06T08:56:41.207Z,99029.19
2023-02-06T08:59:08.104Z,99020.28
2023-02-06T09:01:35.958Z,99023.56
2023-02-06T09:04:04.458Z,99027.78
2023-02-06T09:06:30.844Z,99036.78
2023-02-06T09:08:57.358Z,99047.78
2023-02-06T09:11:24.553Z,99035.38
2023-02-06T09:13:51.317Z,99041.34
2023-02-06T09:16:18.858Z,99034.91
2023-02-06T09:18:45.752Z,99022.63
2023-02-06T09:21:16.514Z,99019.31
2023-02-06T09:23:44.126Z,99026.16
2023-02-06T09:26:11.302Z,99011.13
2023-02-06T09:28:37.818Z,99019.59
2023-02-06T09:31:04.370Z,99008.13
2023-02-06T09:33:30.853Z,99005.28
2023-02-06T09:36:07.983Z,99016.03
2023-02-06T09:38:34.883Z,99016.78
2023-02-06T09:41:04.890Z,99012.47
2023-02-06T09:43:31.984Z,99005.72
2023-02-06T09:46:01.536Z,99015.38
2023-02-06T09:48:30.792Z,99007.63
2023-02-06T09:51:15.643Z,99005.75
2023-02-06T09:53:45.108Z,99010.13
2023-02-06T09:56:26.106Z,99006.31
2023-02-06T09:58:58.612Z,99014.81
2023-02-06T10:01:31.094Z,99010.69
2023-02-06T10:04:10.100Z,98989.25
2023-02-06T10:06:41.143Z,98987.75
2023-02-06T10:09:14.112Z,98979.16
2023-02-06T10:11:54.413Z,98978.72
2023-02-06T10:14:27.701Z,98967.03
2023-02-06T10:16:58.030Z,98957.13
2023-02-06T10:19:43.810Z,98949.91
2023-02-06T10:22:14.716Z,98942.69
2023-02-06T10:24:59.800Z,98931.59
2023-02-06T10:27:26.589Z,98927.56
2023-02-06T10:29:53.082Z,98926.13
2023-02-06T10:32:39.854Z,98922.78
2023-02-06T10:35:13.692Z,98908.22
2023-02-06T10:37:47.845Z,98905.06
2023-02-06T10:40:32.741Z,98906.59
2023-02-06T10:42:59.160Z,98905.88
2023-02-06T10:45:32.493Z,98901.09
2023-02-06T10:48:09.565Z,98892.16
2023-02-06T10:50:45.652Z,98880.66
2023-02-06T10:53:22.221Z,98874.66
2023-02-06T10:56:12.658Z,98877.91
2023-02-06T10:58:51.260Z,98872.06
2023-02-06T11:01:26.050Z,98875.72
2023-02-06T11:04:02.454Z,98867.19
2023-02-06T11:06:29.899Z,98876.63
2023-02-06T11:08:56.369Z,98867.22
2023-02-06T11:11:32.091Z,98871.78
2023-02-06T11:14:01.446Z,98863.19
2023-02-06T11:16:28.723Z,98862.06
2023-02-06T11:19:24.245Z,98863.00
2023-02-06T11:21:56.637Z,98870.44
2023-02-06T11:31:25.520Z,98849.19
2023-02-06T11:41:01.455Z,98850.50
2023-02-06T11:53:24.279Z,98844.25
2023-02-06T11:56:04.966Z,98837.72
2023-02-06T11:59:08.034Z,98833.09
2023-02-06T12:01:41.794Z,98833.25
2023-02-06T12:04:25.591Z,98826.00
2023-02-06T12:08:44.190Z,98834.41
2023-02-06T12:09:56.469Z,98843.00
2023-02-06T12:12:32.748Z,98845.09
2023-02-06T12:18:34.907Z,98843.53
2023-02-06T12:21:15.018Z,98849.56
2023-02-06T12:24:04.257Z,98843.81
2023-02-06T12:27:10.819Z,98845.84
2023-02-06T12:46:52.827Z,98806.63
2023-02-06T12:49:58.040Z,98807.38
2023-02-06T13:18:35.007Z,98796.56
2023-02-06T13:21:13.572Z,98785.50
2023-02-06T13:23:49.371Z,98791.75
2023-02-06T13:26:16.308Z,98789.94
2023-02-06T14:06:14.277Z,98754.97
2023-02-06T14:18:43.410Z,98759.50
2023-02-06T14:25:04.072Z,98756.13
2023-02-06T14:27:35.409Z,98745.84
2023-02-06T14:30:24.303Z,98751.13
2023-02-06T14:33:09.242Z,98741.50
2023-02-06T14:35:46.684Z,98752.84
2023-02-06T14:38:36.817Z,98757.28
2023-02-06T14:41:08.477Z,98753.97
2023-02-06T14:43:37.658Z,98753.16
2023-02-06T14:46:08.320Z,98745.47
2023-02-06T14:48:46.067Z,98750.69
2023-02-06T14:51:31.197Z,98745.56
2023-02-06T14:54:00.278Z,98743.06
2023-02-06T14:56:34.335Z,98754.47
2023-02-06T14:59:20.051Z,98757.97
2023-02-06T15:02:09.609Z,98758.81
2023-02-06T15:04:45.367Z,98758.00
2023-02-06T15:07:29.298Z,98757.22
2023-02-06T15:09:57.487Z,98757.25
2023-02-06T15:12:26.667Z,98765.09
2023-02-06T15:15:17.259Z,98764.28
2023-02-06T15:17:44.049Z,98769.47
2023-02-06T15:20:27.489Z,98766.91
2023-02-06T15:23:04.976Z,98775.56
2023-02-06T15:25:57.189Z,98779.94
2023-02-06T15:28:25.813Z,98776.53
2023-02-06T15:30:53.405Z,98786.06
2023-02-06T15:33:23.123Z,98786.09
2023-02-06T15:35:52.968Z,98791.28
2023-02-06T15:38:20.091Z,98791.28
2023-02-06T15:40:48.003Z,98792.16
2023-02-06T15:43:22.539Z,98793.91
2023-02-06T15:45:50.138Z,98804.25
2023-02-06T15:48:23.622Z,98802.56
2023-02-06T15:51:15.201Z,98798.25
2023-02-06T15:53:42.553Z,98792.19
2023-02-06T15:56:29.180Z,98787.03
2023-02-06T15:58:59.661Z,98792.22
2023-02-06T16:01:30.488Z,98787.03
2023-02-06T16:04:02.017Z,98785.31
2023-02-06T16:06:28.688Z,98786.16
2023-02-06T16:08:58.348Z,98797.41
2023-02-06T16:11:46.186Z,98797.41
2023-02-06T16:14:30.524Z,98809.47
2023-02-06T16:17:12.341Z,98814.66
2023-02-06T16:19:48.428Z,98813.81
2023-02-06T16:22:21.076Z,98835.38
2023-02-06T16:24:48.635Z,98834.50
2023-02-06T16:27:19.826Z,98833.63
2023-02-06T16:29:50.068Z,98839.66
2023-02-06T16:32:31.698Z,98849.16
2023-02-06T16:35:01.175Z,98850.88
2023-02-06T16:37:30.009Z,98856.91
2023-02-06T16:39:56.634Z,98862.09
2023-02-06T16:42:33.886Z,98870.69
2023-02-06T16:45:05.558Z,98878.44
2023-02-06T16:47:32.127Z,98878.44
2023-02-06T16:49:58.664Z,98887.91
2023-02-06T16:52:29.052Z,98890.50
2023-02-06T16:54:58.921Z,98890.47
2023-02-06T16:57:46.578Z,98897.34
2023-02-06T17:00:20.583Z,98897.34
2023-02-06T17:02:47.973Z,98893.88
2023-02-06T17:05:15.321Z,98903.34
2023-02-06T17:07:42.503Z,98898.16
2023-02-06T17:10:10.339Z,98899.88
2023-02-06T17:12:37.108Z,98904.19
2023-02-06T17:15:04.377Z,98901.59
2023-02-06T17:17:31.260Z,98899.00
2023-02-06T17:19:58.013Z,98903.28
2023-02-06T17:22:24.683Z,98905.88
2023-02-06T17:24:51.399Z,98899.00
2023-02-06T17:27:20.821Z,98905.91
2023-02-06T17:29:48.120Z,98918.84
2023-02-06T17:32:16.161Z,98917.13
2023-02-06T17:34:42.906Z,98910.25
2023-02-06T17:37:20.445Z,98911.97
2023-02-06T17:39:48.956Z,98913.72
2023-02-06T17:42:15.734Z,98905.97
2023-02-06T17:44:42.799Z,98908.53
2023-02-06T17:47:09.516Z,98912.88
2023-02-06T17:49:39.454Z,98910.28
2023-02-06T17:52:05.956Z,98904.22
2023-02-06T17:54:32.705Z,98909.38
2023-02-06T17:56:59.354Z,98918.00
2023-02-06T17:59:36.532Z,98910.19
2023-02-06T18:02:03.104Z,98913.66
2023-02-06T18:04:29.765Z,98918.81
2023-02-06T18:06:56.305Z,98918.78
2023-02-06T18:09:22.903Z,98911.88
2023-02-06T18:11:49.473Z,98912.69
2023-02-06T18:14:15.994Z,98916.09
2023-02-06T18:16:42.937Z,98924.66
2023-02-06T18:19:10.477Z,98921.16
2023-02-06T18:21:36.982Z,98923.72
2023-02-06T18:24:03.607Z,98918.50
2023-02-06T18:26:30.180Z,98926.25
2023-02-06T18:28:56.694Z,98923.69
2023-02-06T18:31:35.391Z,98923.66
2023-02-06T18:34:07.691Z,98914.09
2023-02-06T18:36:36.230Z,98926.09
2023-02-06T18:39:03.368Z,98925.19
2023-02-06T18:41:48.208Z,98929.47
2023-02-06T18:44:14.729Z,98929.38
2023-02-06T18:46:41.312Z,98925.88
2023-02-06T18:49:07.864Z,98923.28
2023-02-06T18:51:34.636Z,98929.28
2023-02-06T18:54:01.319Z,98930.97
2023-02-06T18:56:28.275Z,98927.50
2023-02-06T18:58:55.616Z,98923.19
2023-02-06T19:01:24.904Z,98935.19
2023-02-06T19:03:53.270Z,98933.41
2023-02-06T19:06:25.684Z,98930.75
2023-02-06T19:08:52.184Z,98929.00
2023-02-06T19:11:18.698Z,98926.34
2023-02-06T19:13:45.469Z,98935.75
2023-02-06T19:16:17.592Z,98932.34
2023-02-06T19:18:46.573Z,98932.34
2023-02-06T19:21:17.098Z,98938.31
2023-02-06T19:23:45.201Z,98937.38
2023-02-06T19:26:14.566Z,98935.63
2023-02-06T19:28:42.494Z,98941.59
2023-02-06T19:31:10.867Z,98946.69
2023-02-06T19:33:39.304Z,98924.28
2023-02-06T19:36:15.957Z,98925.09
2023-02-06T19:38:43.386Z,98925.84
2023-02-06T19:41:13.501Z,98938.66
2023-02-06T19:43:40.358Z,98947.97
2023-02-06T19:46:13.169Z,98948.78
2023-02-06T19:48:45.566Z,98947.00
2023-02-06T19:51:30.542Z,98947.00
2023-02-06T19:53:58.586Z,98952.97
2023-02-06T19:56:38.224Z,98958.09
2023-02-06T19:59:08.862Z,98968.38
2023-02-06T20:01:36.064Z,98988.97
2023-02-06T20:04:03.618Z,98996.69
2023-02-06T20:06:34.880Z,99000.19
2023-02-06T20:09:03.731Z,98999.41
2023-02-06T20:11:31.611Z,98991.78
2023-02-06T20:13:58.850Z,98990.13
2023-02-06T20:16:29.582Z,98997.00
2023-02-06T20:18:56.806Z,98996.19
2023-02-06T20:21:31.271Z,98994.53
2023-02-06T20:24:00.738Z,98991.97
2023-02-06T20:26:30.479Z,98992.03
2023-02-06T20:28:57.044Z,98998.06
2023-02-06T20:31:23.768Z,98989.47
2023-02-06T20:33:50.513Z,98986.03
2023-02-06T20:36:23.216Z,98986.03
2023-02-06T20:39:00.233Z,98974.81
2023-02-06T20:41:31.089Z,98982.44
2023-02-06T20:44:00.281Z,98978.06
2023-02-06T20:46:29.676Z,98984.91
2023-02-06T20:49:02.195Z,98979.84
2023-02-06T20:51:29.905Z,98978.94
2023-02-06T20:53:56.543Z,98985.03
2023-02-06T20:56:25.151Z,98976.44
2023-02-06T20:58:52.391Z,98982.47
2023-02-06T21:01:22.377Z,98980.75
2023-02-06T21:03:54.173Z,98979.00
2023-02-06T21:06:21.095Z,98976.34
2023-02-06T21:08:50.138Z,98975.50
2023-02-06T21:11:17.489Z,98963.44
2023-02-06T21:13:44.017Z,98956.41
2023-02-06T21:16:13.461Z,98964.91
2023-02-06T21:18:42.498Z,98967.44
2023-02-06T21:21:12.535Z,98958.84
2023-02-06T21:23:41.139Z,98954.47
2023-02-06T21:26:09.761Z,98956.94
2023-02-06T21:28:37.095Z,98963.75
2023-02-06T21:31:14.898Z,98964.63
2023-02-06T21:33:41.756Z,98967.97
2023-02-06T21:36:08.605Z,98960.19
2023-02-06T21:38:36.377Z,98967.00
2023-02-06T21:41:14.781Z,98961.00
2023-02-06T21:43:41.821Z,98949.75
2023-02-06T21:46:09.903Z,98954.06
2023-02-06T21:48:36.825Z,98965.09
2023-02-06T21:51:11.876Z,98964.13
2023-02-06T21:53:38.942Z,98958.94
2023-02-06T21:56:16.257Z,98956.28
2023-02-06T21:58:43.319Z,98963.16
2023-02-06T22:01:17.740Z,98958.91
2023-02-06T22:03:45.780Z,98966.63
2023-02-06T22:06:13.595Z,98957.97
2023-02-06T22:08:43.234Z,98942.41
2023-02-06T22:11:17.425Z,98945.66
2023-02-06T22:13:44.968Z,98945.50
2023-02-06T22:16:13.839Z,98947.09
2023-02-06T22:18:41.420Z,98953.81
2023-02-06T22:21:11.381Z,98961.38
2023-02-06T22:23:37.944Z,98957.81
2023-02-06T22:26:04.829Z,98965.53
2023-02-06T22:28:31.578Z,98964.63
2023-02-06T22:31:08.526Z,98970.59
2023-02-06T22:33:35.486Z,98970.53
2023-02-06T22:36:10.332Z,98983.34
2023-02-06T22:38:37.570Z,98994.38
2023-02-06T22:41:06.848Z,98990.88
2023-02-06T22:43:36.194Z,98983.00
2023-02-06T22:46:03.955Z,98996.63
2023-02-06T22:48:30.719Z,98996.53
2023-02-06T22:50:57.259Z,98994.78
2023-02-06T22:53:29.684Z,98999.03
2023-02-06T22:56:20.453Z,99011.88
2023-02-06T22:58:48.117Z,99009.25
2023-02-06T23:01:16.286Z,99022.09
2023-02-06T23:03:43.144Z,99027.19
2023-02-06T23:06:11.209Z,99037.50
2023-02-06T23:08:38.006Z,99039.22
2023-02-06T23:11:05.876Z,99040.03
2023-02-06T23:13:32.893Z,99038.22
2023-02-06T23:16:00.009Z,99049.34
2023-02-06T23:18:27.816Z,99043.34
2023-02-06T23:21:00.026Z,99042.47
2023-02-06T23:23:27.327Z,99040.81
2023-02-06T23:25:53.950Z,99045.19
2023-02-06T23:28:22.238Z,99061.47
2023-02-06T23:30:48.806Z,99063.16
2023-02-06T23:33:16.928Z,99067.31
2023-02-06T23:35:43.877Z,99070.69
2023-02-06T23:38:11.435Z,99073.13
2023-02-06T23:40:38.232Z,99073.22
2023-02-06T23:43:05.979Z,99065.53
2023-02-06T23:45:33.269Z,99066.47
2023-02-06T23:47:59.825Z,99064.75
2023-02-06T23:50:27.022Z,99067.31
2023-02-06T23:52:53.653Z,99064.78
2023-02-06T23:55:20.897Z,99061.31
2023-02-06T23:57:47.556Z,99065.59
